createdAt,value
2018-02-25T00:03:17.505Z,16.90
2018-02-25T00:08:21.254Z,22.13
2018-02-25T00:13:24.541Z,17.37
2018-02-25T00:18:28.586Z,16.40
2018-02-25T00:23:32.677Z,14.37
2018-02-25T00:28:36.375Z,19.83
2018-02-25T00:33:40.619Z,16.93
2018-02-25T00:38:44.378Z,18.77
2018-02-25T00:43:48.699Z,17.97
2018-02-25T00:48:52.776Z,19.57
2018-02-25T00:53:56.947Z,22.40
2018-02-25T00:59:01.158Z,17.23
2018-02-25T01:04:04.401Z,17.73
2018-02-25T01:09:08.573Z,12.60
2018-02-25T01:14:12.423Z,16.13
2018-02-25T01:19:16.806Z,18.17
2018-02-25T01:24:20.667Z,10.67
2018-02-25T01:29:27.422Z,17.13
2018-02-25T01:34:30.844Z,16.80
2018-02-25T01:39:38.305Z,19.70
2018-02-25T01:44:42.597Z,20.27
2018-02-25T01:49:50.550Z,9.70
2018-02-25T01:54:54.040Z,17.83
2018-02-25T01:59:57.268Z,15.67
2018-02-25T02:05:01.034Z,12.87
2018-02-25T02:10:04.898Z,20.07
2018-02-25T02:15:09.146Z,8.03
2018-02-25T02:20:16.213Z,12.30
2018-02-25T02:25:19.711Z,12.23
2018-02-25T02:30:27.548Z,17.90
2018-02-25T02:35:30.818Z,10.87
2018-02-25T02:40:37.931Z,7.97
2018-02-25T02:45:41.162Z,9.83
2018-02-25T02:50:48.212Z,19.07
2018-02-25T02:55:51.658Z,8.57
2018-02-25T03:00:55.167Z,16.27
2018-02-25T03:05:59.148Z,13.63
2018-02-25T03:11:03.703Z,16.93
2018-02-25T03:16:07.662Z,14.17
2018-02-25T03:21:10.994Z,16.77
2018-02-25T03:26:17.583Z,10.00
2018-02-25T03:31:21.100Z,13.63
2018-02-25T03:36:24.835Z,13.30
2018-02-25T03:41:28.803Z,17.23
2018-02-25T03:46:36.700Z,18.33
2018-02-25T03:51:40.952Z,15.27
2018-02-25T03:56:45.973Z,13.83
2018-02-25T04:01:49.778Z,9.53
2018-02-25T04:06:56.746Z,17.00
2018-02-25T04:12:00.073Z,9.97
2018-02-25T04:17:04.541Z,9.27
2018-02-25T04:22:07.882Z,14.50
2018-02-25T04:27:13.232Z,15.73
2018-02-25T04:32:17.710Z,7.07
2018-02-25T04:37:22.852Z,15.97
2018-02-25T04:42:26.364Z,19.53
2018-02-25T04:47:34.382Z,16.90
2018-02-25T04:52:38.643Z,13.03
2018-02-25T04:57:42.896Z,17.87
2018-02-25T05:02:47.377Z,16.60
2018-02-25T05:07:55.045Z,18.97
2018-02-25T05:12:59.322Z,11.57
2018-02-25T05:18:07.238Z,20.23
2018-02-25T05:23:10.514Z,19.53
2018-02-25T05:28:15.237Z,14.20
2018-02-25T05:33:18.497Z,14.53
2018-02-25T05:38:25.361Z,19.63
2018-02-25T05:43:28.692Z,17.63
2018-02-25T05:48:35.874Z,17.80
2018-02-25T05:53:39.238Z,14.83
2018-02-25T05:58:44.071Z,14.17
2018-02-25T06:03:48.970Z,16.87
2018-02-25T06:08:55.650Z,12.20
2018-02-25T06:13:59.793Z,18.87
2018-02-25T06:19:03.490Z,24.47
2018-02-25T06:24:07.375Z,28.47
2018-02-25T06:29:12.158Z,14.13
2018-02-25T06:34:16.172Z,16.87
2018-02-25T06:39:20.318Z,18.27
2018-02-25T06:44:24.449Z,16.43
2018-02-25T06:49:28.676Z,16.73
2018-02-25T06:54:33.626Z,16.90
2018-02-25T06:59:36.934Z,14.80
2018-02-25T07:04:40.490Z,24.23
2018-02-25T07:09:44.741Z,9.93
2018-02-25T07:14:48.101Z,13.40
2018-02-25T07:19:52.202Z,13.10
2018-02-25T07:24:55.859Z,13.37
2018-02-25T07:30:02.832Z,15.63
2018-02-25T07:35:06.302Z,11.33
2018-02-25T07:40:09.905Z,15.40
2018-02-25T07:45:13.463Z,20.67
2018-02-25T07:50:17.743Z,15.27
2018-02-25T07:55:21.370Z,12.60
2018-02-25T08:00:25.386Z,21.90
2018-02-25T08:05:28.938Z,15.97
2018-02-25T08:10:32.911Z,14.10
2018-02-25T08:15:37.295Z,24.97
2018-02-25T08:20:41.412Z,27.40
2018-02-25T08:25:44.910Z,19.33
2018-02-25T08:30:48.336Z,20.53
2018-02-25T08:35:53.649Z,23.07
2018-02-25T08:40:57.927Z,16.17
2018-02-25T08:46:02.282Z,21.50
2018-02-25T08:51:07.065Z,17.83
2018-02-25T08:56:11.273Z,27.00
2018-02-25T09:01:14.733Z,23.40
2018-02-25T09:06:20.058Z,29.43
2018-02-25T09:11:23.697Z,13.33
2018-02-25T09:16:27.739Z,21.90
2018-02-25T09:21:31.079Z,25.97
2018-02-25T09:26:37.922Z,31.30
2018-02-25T09:31:41.714Z,29.67
2018-02-25T09:36:45.271Z,41.37
2018-02-25T09:41:49.286Z,26.60
2018-02-25T09:46:53.301Z,25.03
2018-02-25T09:51:56.726Z,19.67
2018-02-25T09:57:00.773Z,21.23
2018-02-25T10:02:04.109Z,17.37
2018-02-25T10:07:08.202Z,23.77
2018-02-25T10:12:11.690Z,24.07
2018-02-25T10:17:15.946Z,20.70
2018-02-25T10:22:19.735Z,22.73
2018-02-25T10:27:25.053Z,23.50
2018-02-25T10:32:28.295Z,27.17
2018-02-25T10:37:31.946Z,26.13
2018-02-25T10:42:35.360Z,15.90
2018-02-25T10:47:42.198Z,24.73
2018-02-25T10:52:46.642Z,24.47
2018-02-25T10:57:53.868Z,26.13
2018-02-25T11:02:58.078Z,22.87
2018-02-25T11:08:02.209Z,19.93
2018-02-25T11:13:06.034Z,23.53
2018-02-25T11:18:10.480Z,14.50
2018-02-25T11:23:14.234Z,25.50
2018-02-25T11:28:18.169Z,21.30
2018-02-25T11:33:22.967Z,24.20
2018-02-25T11:38:26.770Z,19.87
2018-02-25T11:43:31.006Z,27.93
2018-02-25T11:48:34.507Z,26.43
2018-02-25T11:53:38.735Z,28.93
2018-02-25T11:58:43.055Z,28.07
2018-02-25T12:03:47.270Z,29.87
2018-02-25T12:08:52.305Z,29.30
2018-02-25T12:13:56.090Z,26.27
2018-02-25T12:19:00.302Z,23.40
2018-02-25T12:24:04.267Z,20.13
2018-02-25T12:29:08.330Z,27.07
2018-02-25T12:34:12.783Z,27.97
2018-02-25T12:39:18.134Z,28.43
2018-02-25T12:44:22.386Z,17.60
2018-02-25T12:49:26.567Z,25.20
2018-02-25T12:54:30.878Z,29.47
2018-02-25T12:59:35.313Z,23.73
2018-02-25T13:04:39.239Z,37.87
2018-02-25T13:09:43.406Z,12.87
2018-02-25T13:14:47.519Z,21.13
2018-02-25T13:19:51.309Z,25.40
2018-02-25T13:24:55.209Z,26.50
2018-02-25T13:29:59.911Z,23.83
2018-02-25T13:35:03.882Z,27.03
2018-02-25T13:40:07.102Z,20.63
2018-02-25T13:45:11.040Z,23.87
2018-02-25T13:50:14.580Z,13.30
2018-02-25T13:55:19.026Z,22.40
2018-02-25T14:00:22.609Z,25.13
2018-02-25T14:05:26.706Z,26.10
2018-02-25T14:10:30.853Z,29.70
2018-02-25T14:15:35.690Z,24.47
2018-02-25T14:20:39.745Z,24.00
2018-02-25T14:25:47.085Z,20.57
2018-02-25T14:30:50.586Z,19.93
2018-02-25T14:35:55.505Z,20.70
2018-02-25T14:40:58.989Z,27.63
2018-02-25T14:46:03.405Z,24.13
2018-02-25T14:51:07.219Z,15.23
2018-02-25T14:56:17.638Z,20.57
2018-02-25T15:01:22.573Z,21.87
2018-02-25T15:06:27.325Z,22.93
2018-02-25T15:11:31.048Z,20.07
2018-02-25T15:16:34.561Z,25.70
2018-02-25T15:21:38.073Z,27.33
2018-02-25T15:26:41.870Z,17.40
2018-02-25T15:31:45.680Z,23.50
2018-02-25T15:36:49.134Z,19.67
2018-02-25T15:41:53.222Z,25.27
2018-02-25T15:46:57.630Z,26.47
2018-02-25T15:52:01.299Z,25.00
2018-02-25T15:57:06.858Z,17.83
2018-02-25T16:02:10.623Z,26.20
2018-02-25T16:07:14.567Z,19.37
2018-02-25T16:12:18.703Z,21.60
2018-02-25T16:17:22.884Z,25.63
2018-02-25T16:22:26.358Z,26.27
2018-02-25T16:27:30.061Z,25.57
2018-02-25T16:32:34.043Z,27.00
2018-02-25T16:37:38.845Z,19.77
2018-02-25T16:42:42.295Z,24.37
2018-02-25T16:47:46.432Z,24.17
2018-02-25T16:52:49.620Z,22.27
2018-02-25T16:57:53.428Z,13.37
2018-02-25T17:02:57.478Z,28.40
2018-02-25T17:08:02.797Z,24.77
2018-02-25T17:13:06.448Z,26.10
2018-02-25T17:18:10.976Z,18.83
2018-02-25T17:23:14.451Z,19.37
2018-02-25T17:28:17.933Z,18.10
2018-02-25T17:33:22.144Z,19.50
2018-02-25T17:38:26.112Z,24.67
2018-02-25T17:43:29.688Z,27.57
2018-02-25T17:48:33.945Z,29.40
2018-02-25T17:53:39.093Z,22.37
2018-02-25T18:01:10.080Z,28.40
2018-02-25T18:06:09.190Z,19.17
2018-02-25T18:11:06.323Z,22.67
2018-02-25T18:16:03.473Z,25.90
2018-02-25T18:21:01.067Z,19.57
2018-02-25T18:26:01.370Z,16.03
2018-02-25T18:30:59.502Z,13.83
2018-02-25T18:35:57.796Z,11.23
2018-02-25T18:40:55.371Z,19.80
2018-02-25T18:45:52.747Z,18.97
2018-02-25T18:50:49.751Z,10.97
2018-02-25T18:55:46.695Z,15.83
2018-02-25T19:00:45.287Z,18.70
2018-02-25T19:05:43.090Z,16.90
2018-02-25T19:10:40.544Z,23.70
2018-02-25T19:15:43.941Z,14.10
2018-02-25T19:20:40.985Z,21.17
2018-02-25T19:25:38.250Z,10.90
2018-02-25T19:30:35.687Z,8.60
2018-02-25T19:35:41.670Z,7.13
2018-02-25T19:40:44.829Z,16.93
2018-02-25T19:45:42.979Z,14.50
2018-02-25T19:50:40.022Z,10.40
2018-02-25T19:55:37.153Z,12.73
2018-02-25T20:00:35.420Z,17.17
2018-02-25T20:05:32.776Z,15.77
2018-02-25T20:10:31.257Z,13.80
2018-02-25T20:15:28.318Z,11.07
2018-02-25T20:20:25.413Z,15.40
2018-02-25T20:25:28.800Z,10.43
2018-02-25T20:30:25.777Z,9.33
2018-02-25T20:35:23.283Z,13.20
2018-02-25T20:40:20.234Z,7.20
2018-02-25T20:45:17.271Z,8.53
2018-02-25T20:50:15.770Z,6.13
2018-02-25T20:55:14.236Z,7.33
2018-02-25T21:00:11.170Z,16.17
2018-02-25T21:05:09.140Z,12.27
2018-02-25T21:10:06.095Z,10.93
2018-02-25T21:15:03.565Z,6.77
2018-02-25T21:20:00.629Z,8.20
2018-02-25T21:25:02.459Z,12.20
2018-02-25T21:29:59.349Z,9.50
2018-02-25T21:34:56.369Z,5.17
2018-02-25T21:39:54.113Z,9.23
2018-02-25T21:44:51.622Z,7.77
2018-02-25T21:49:48.453Z,10.10
2018-02-25T21:54:51.608Z,8.20
2018-02-25T21:59:54.593Z,9.83
2018-02-25T22:04:51.788Z,6.23
2018-02-25T22:09:48.598Z,10.77
2018-02-25T22:14:48.658Z,8.03
2018-02-25T22:19:46.436Z,6.03
2018-02-25T22:24:43.585Z,5.53
2018-02-25T22:29:41.698Z,5.27
2018-02-25T22:34:38.969Z,3.90
2018-02-25T22:39:35.924Z,7.30
2018-02-25T22:44:33.053Z,8.20
2018-02-25T22:49:29.949Z,8.03
2018-02-25T22:54:29.877Z,7.07
2018-02-25T22:59:27.119Z,7.10
2018-02-25T23:04:27.192Z,9.30
2018-02-25T23:09:24.243Z,5.43
2018-02-25T23:14:22.411Z,5.07
2018-02-25T23:19:19.500Z,3.57
2018-02-25T23:24:17.793Z,3.57
2018-02-25T23:29:14.781Z,5.30
2018-02-25T23:34:15.500Z,7.83
2018-02-25T23:39:12.742Z,7.37
2018-02-25T23:44:10.716Z,7.83
2018-02-25T23:49:08.137Z,7.50
2018-02-25T23:54:06.125Z,4.50
2018-02-25T23:59:03.091Z,5.70
